sensor_id;sensor_type;location;lat;lon;timestamp;P1;durP1;ratioP1;P2;durP2;ratioP2
75280;SDS011;63874;47.230;39.620;2023-04-24T00:00:15;3.85;;;1.50;;
75280;SDS011;63874;47.230;39.620;2023-04-24T00:02:43;3.53;;;2.10;;
75280;SDS011;63874;47.230;39.620;2023-04-24T00:05:13;4.30;;;1.58;;
75280;SDS011;63874;47.230;39.620;2023-04-24T00:07:40;3.83;;;1.50;;
75280;SDS011;63874;47.230;39.620;2023-04-24T00:10:07;4.85;;;1.85;;
75280;SDS011;63874;47.230;39.620;2023-04-24T00:12:33;3.38;;;1.50;;
75280;SDS011;63874;47.230;39.620;2023-04-24T00:14:59;2.92;;;1.23;;
75280;SDS011;63874;47.230;39.620;2023-04-24T00:17:26;4.57;;;1.55;;
75280;SDS011;63874;47.230;39.620;2023-04-24T00:19:52;3.75;;;1.48;;
75280;SDS011;63874;47.230;39.620;2023-04-24T00:22:26;2.80;;;1.20;;
75280;SDS011;63874;47.230;39.620;2023-04-24T00:24:53;3.28;;;1.45;;
75280;SDS011;63874;47.230;39.620;2023-04-24T00:27:19;3.15;;;1.65;;
75280;SDS011;63874;47.230;39.620;2023-04-24T00:29:45;3.67;;;1.67;;
75280;SDS011;63874;47.230;39.620;2023-04-24T00:32:11;3.97;;;2.15;;
75280;SDS011;63874;47.230;39.620;2023-04-24T00:34:37;3.70;;;1.27;;
75280;SDS011;63874;47.230;39.620;2023-04-24T00:37:03;3.38;;;1.58;;
75280;SDS011;63874;47.230;39.620;2023-04-24T00:39:29;4.70;;;1.60;;
75280;SDS011;63874;47.230;39.620;2023-04-24T00:41:55;2.97;;;1.33;;
75280;SDS011;63874;47.230;39.620;2023-04-24T00:44:22;2.58;;;1.02;;
75280;SDS011;63874;47.230;39.620;2023-04-24T00:46:48;2.08;;;0.77;;
75280;SDS011;63874;47.230;39.620;2023-04-24T00:49:21;2.95;;;1.20;;
75280;SDS011;63874;47.230;39.620;2023-04-24T00:51:47;3.28;;;1.30;;
75280;SDS011;63874;47.230;39.620;2023-04-24T00:54:15;3.40;;;1.35;;
75280;SDS011;63874;47.230;39.620;2023-04-24T00:56:42;3.53;;;1.73;;
75280;SDS011;63874;47.230;39.620;2023-04-24T00:59:09;2.20;;;1.27;;
75280;SDS011;63874;47.230;39.620;2023-04-24T01:01:35;3.45;;;1.58;;
75280;SDS011;63874;47.230;39.620;2023-04-24T01:04:02;2.85;;;1.17;;
75280;SDS011;63874;47.230;39.620;2023-04-24T01:06:28;5.53;;;1.73;;
75280;SDS011;63874;47.230;39.620;2023-04-24T01:08:57;4.43;;;1.50;;
75280;SDS011;63874;47.230;39.620;2023-04-24T01:11:25;3.05;;;1.52;;
75280;SDS011;63874;47.230;39.620;2023-04-24T01:13:51;3.13;;;1.48;;
75280;SDS011;63874;47.230;39.620;2023-04-24T01:16:17;3.38;;;1.40;;
75280;SDS011;63874;47.230;39.620;2023-04-24T01:18:46;3.38;;;1.33;;
75280;SDS011;63874;47.230;39.620;2023-04-24T01:21:15;3.65;;;1.45;;
75280;SDS011;63874;47.230;39.620;2023-04-24T01:23:44;3.55;;;1.75;;
75280;SDS011;63874;47.230;39.620;2023-04-24T01:26:11;4.97;;;1.70;;
75280;SDS011;63874;47.230;39.620;2023-04-24T01:28:38;3.75;;;1.90;;
75280;SDS011;63874;47.230;39.620;2023-04-24T01:31:04;2.85;;;1.25;;
75280;SDS011;63874;47.230;39.620;2023-04-24T01:33:31;3.15;;;1.45;;
75280;SDS011;63874;47.230;39.620;2023-04-24T01:35:57;2.97;;;1.13;;
75280;SDS011;63874;47.230;39.620;2023-04-24T01:38:23;3.40;;;1.70;;
75280;SDS011;63874;47.230;39.620;2023-04-24T01:40:49;3.05;;;1.70;;
75280;SDS011;63874;47.230;39.620;2023-04-24T01:43:16;3.22;;;1.52;;
75280;SDS011;63874;47.230;39.620;2023-04-24T01:45:43;2.72;;;1.30;;
75280;SDS011;63874;47.230;39.620;2023-04-24T01:48:08;3.42;;;1.42;;
75280;SDS011;63874;47.230;39.620;2023-04-24T01:50:34;3.92;;;1.30;;
75280;SDS011;63874;47.230;39.620;2023-04-24T01:53:02;3.92;;;2.35;;
75280;SDS011;63874;47.230;39.620;2023-04-24T01:55:28;2.75;;;1.48;;
75280;SDS011;63874;47.230;39.620;2023-04-24T01:57:55;3.35;;;1.27;;
75280;SDS011;63874;47.230;39.620;2023-04-24T02:00:21;2.47;;;1.10;;
75280;SDS011;63874;47.230;39.620;2023-04-24T02:02:47;3.55;;;1.50;;
75280;SDS011;63874;47.230;39.620;2023-04-24T02:05:13;3.67;;;1.20;;
75280;SDS011;63874;47.230;39.620;2023-04-24T02:07:39;3.13;;;1.52;;
75280;SDS011;63874;47.230;39.620;2023-04-24T02:10:05;2.97;;;1.42;;
75280;SDS011;63874;47.230;39.620;2023-04-24T02:12:31;3.55;;;1.63;;
75280;SDS011;63874;47.230;39.620;2023-04-24T02:14:57;4.80;;;2.25;;
75280;SDS011;63874;47.230;39.620;2023-04-24T02:17:23;3.42;;;1.30;;
75280;SDS011;63874;47.230;39.620;2023-04-24T02:19:49;3.95;;;1.85;;
75280;SDS011;63874;47.230;39.620;2023-04-24T02:22:15;3.47;;;1.60;;
75280;SDS011;63874;47.230;39.620;2023-04-24T02:24:41;3.28;;;1.73;;
75280;SDS011;63874;47.230;39.620;2023-04-24T02:27:07;3.30;;;1.85;;
75280;SDS011;63874;47.230;39.620;2023-04-24T02:29:33;3.17;;;1.50;;
75280;SDS011;63874;47.230;39.620;2023-04-24T02:31:59;3.20;;;1.65;;
75280;SDS011;63874;47.230;39.620;2023-04-24T02:34:25;2.80;;;1.20;;
75280;SDS011;63874;47.230;39.620;2023-04-24T02:36:51;2.42;;;1.33;;
75280;SDS011;63874;47.230;39.620;2023-04-24T02:39:19;2.83;;;1.17;;
75280;SDS011;63874;47.230;39.620;2023-04-24T02:41:45;3.38;;;1.40;;
75280;SDS011;63874;47.230;39.620;2023-04-24T02:44:11;2.88;;;1.40;;
75280;SDS011;63874;47.230;39.620;2023-04-24T02:46:37;3.10;;;1.60;;
75280;SDS011;63874;47.230;39.620;2023-04-24T02:49:03;2.85;;;1.38;;
75280;SDS011;63874;47.230;39.620;2023-04-24T02:51:29;2.92;;;1.63;;
75280;SDS011;63874;47.230;39.620;2023-04-24T02:53:55;2.65;;;1.40;;
75280;SDS011;63874;47.230;39.620;2023-04-24T02:56:20;3.10;;;1.33;;
75280;SDS011;63874;47.230;39.620;2023-04-24T02:58:46;2.88;;;1.33;;
75280;SDS011;63874;47.230;39.620;2023-04-24T03:01:12;2.78;;;1.27;;
75280;SDS011;63874;47.230;39.620;2023-04-24T03:03:38;3.42;;;2.63;;
75280;SDS011;63874;47.230;39.620;2023-04-24T03:06:04;2.65;;;1.33;;
75280;SDS011;63874;47.230;39.620;2023-04-24T03:08:31;2.95;;;1.40;;
75280;SDS011;63874;47.230;39.620;2023-04-24T03:10:57;1.80;;;0.90;;
75280;SDS011;63874;47.230;39.620;2023-04-24T03:13:23;3.95;;;1.65;;
75280;SDS011;63874;47.230;39.620;2023-04-24T03:15:49;3.38;;;1.60;;
75280;SDS011;63874;47.230;39.620;2023-04-24T03:18:15;3.25;;;1.75;;
75280;SDS011;63874;47.230;39.620;2023-04-24T03:20:41;3.38;;;1.67;;
75280;SDS011;63874;47.230;39.620;2023-04-24T03:23:08;2.95;;;1.42;;
75280;SDS011;63874;47.230;39.620;2023-04-24T03:25:35;4.38;;;1.70;;
75280;SDS011;63874;47.230;39.620;2023-04-24T03:28:02;3.22;;;1.60;;
75280;SDS011;63874;47.230;39.620;2023-04-24T03:30:35;3.42;;;1.63;;
75280;SDS011;63874;47.230;39.620;2023-04-24T03:33:03;3.05;;;1.30;;
75280;SDS011;63874;47.230;39.620;2023-04-24T03:35:32;2.97;;;1.42;;
75280;SDS011;63874;47.230;39.620;2023-04-24T03:38:01;2.00;;;0.90;;
75280;SDS011;63874;47.230;39.620;2023-04-24T03:40:48;3.72;;;1.63;;
75280;SDS011;63874;47.230;39.620;2023-04-24T03:43:34;3.33;;;1.35;;
75280;SDS011;63874;47.230;39.620;2023-04-24T03:46:01;2.83;;;1.30;;
75280;SDS011;63874;47.230;39.620;2023-04-24T03:48:29;2.30;;;0.93;;
75280;SDS011;63874;47.230;39.620;2023-04-24T03:50:55;2.63;;;1.35;;
75280;SDS011;63874;47.230;39.620;2023-04-24T03:53:21;2.80;;;1.10;;
75280;SDS011;63874;47.230;39.620;2023-04-24T03:55:48;2.53;;;0.93;;
75280;SDS011;63874;47.230;39.620;2023-04-24T03:58:14;2.75;;;1.08;;
75280;SDS011;63874;47.230;39.620;2023-04-24T04:00:40;2.50;;;1.10;;
75280;SDS011;63874;47.230;39.620;2023-04-24T04:03:29;2.38;;;1.02;;
75280;SDS011;63874;47.230;39.620;2023-04-24T04:05:55;3.35;;;1.35;;
75280;SDS011;63874;47.230;39.620;2023-04-24T04:08:21;2.80;;;1.08;;
75280;SDS011;63874;47.230;39.620;2023-04-24T04:10:47;2.85;;;1.55;;
75280;SDS011;63874;47.230;39.620;2023-04-24T04:13:13;2.60;;;1.42;;
75280;SDS011;63874;47.230;39.620;2023-04-24T04:15:40;2.33;;;0.90;;
75280;SDS011;63874;47.230;39.620;2023-04-24T04:18:06;3.92;;;0.93;;
75280;SDS011;63874;47.230;39.620;2023-04-24T04:20:32;2.30;;;1.38;;
75280;SDS011;63874;47.230;39.620;2023-04-24T04:22:58;3.40;;;1.30;;
75280;SDS011;63874;47.230;39.620;2023-04-24T04:25:36;2.60;;;0.98;;
75280;SDS011;63874;47.230;39.620;2023-04-24T04:28:02;2.60;;;1.08;;
75280;SDS011;63874;47.230;39.620;2023-04-24T04:30:29;2.65;;;1.02;;
75280;SDS011;63874;47.230;39.620;2023-04-24T04:33:01;2.05;;;0.85;;
75280;SDS011;63874;47.230;39.620;2023-04-24T04:35:28;1.92;;;0.60;;
75280;SDS011;63874;47.230;39.620;2023-04-24T04:37:54;2.67;;;0.70;;
75280;SDS011;63874;47.230;39.620;2023-04-24T04:41:02;1.58;;;0.65;;
75280;SDS011;63874;47.230;39.620;2023-04-24T04:43:30;3.50;;;0.85;;
75280;SDS011;63874;47.230;39.620;2023-04-24T04:45:58;2.05;;;0.60;;
75280;SDS011;63874;47.230;39.620;2023-04-24T04:48:40;3.20;;;0.85;;
75280;SDS011;63874;47.230;39.620;2023-04-24T04:51:07;1.05;;;0.40;;
75280;SDS011;63874;47.230;39.620;2023-04-24T04:53:32;2.17;;;0.43;;
75280;SDS011;63874;47.230;39.620;2023-04-24T04:55:59;2.47;;;0.80;;
75280;SDS011;63874;47.230;39.620;2023-04-24T04:58:32;2.72;;;0.80;;
75280;SDS011;63874;47.230;39.620;2023-04-24T05:01:00;1.63;;;0.50;;
75280;SDS011;63874;47.230;39.620;2023-04-24T05:03:34;2.03;;;0.68;;
75280;SDS011;63874;47.230;39.620;2023-04-24T05:06:07;1.73;;;0.70;;
75280;SDS011;63874;47.230;39.620;2023-04-24T05:08:39;1.58;;;0.55;;
75280;SDS011;63874;47.230;39.620;2023-04-24T05:13:35;1.90;;;0.60;;
75280;SDS011;63874;47.230;39.620;2023-04-24T05:16:02;1.77;;;0.55;;
75280;SDS011;63874;47.230;39.620;2023-04-24T05:18:29;1.60;;;0.85;;
75280;SDS011;63874;47.230;39.620;2023-04-24T05:20:56;3.67;;;0.70;;
75280;SDS011;63874;47.230;39.620;2023-04-24T05:23:23;4.28;;;0.73;;
75280;SDS011;63874;47.230;39.620;2023-04-24T05:25:52;1.15;;;0.63;;
75280;SDS011;63874;47.230;39.620;2023-04-24T05:28:19;1.52;;;0.38;;
75280;SDS011;63874;47.230;39.620;2023-04-24T05:30:55;1.38;;;0.47;;
75280;SDS011;63874;47.230;39.620;2023-04-24T05:33:23;1.55;;;0.75;;
75280;SDS011;63874;47.230;39.620;2023-04-24T05:35:49;2.65;;;0.40;;
75280;SDS011;63874;47.230;39.620;2023-04-24T05:38:15;1.23;;;0.43;;
75280;SDS011;63874;47.230;39.620;2023-04-24T05:40:43;2.60;;;0.70;;
75280;SDS011;63874;47.230;39.620;2023-04-24T05:43:09;1.50;;;0.60;;
75280;SDS011;63874;47.230;39.620;2023-04-24T05:45:35;1.42;;;0.52;;
75280;SDS011;63874;47.230;39.620;2023-04-24T05:48:02;3.95;;;0.75;;
75280;SDS011;63874;47.230;39.620;2023-04-24T05:50:28;1.35;;;0.60;;
75280;SDS011;63874;47.230;39.620;2023-04-24T05:52:54;2.28;;;0.45;;
75280;SDS011;63874;47.230;39.620;2023-04-24T05:55:25;1.63;;;0.43;;
75280;SDS011;63874;47.230;39.620;2023-04-24T05:57:52;1.95;;;0.70;;
75280;SDS011;63874;47.230;39.620;2023-04-24T06:00:19;1.55;;;0.60;;
75280;SDS011;63874;47.230;39.620;2023-04-24T06:02:52;1.27;;;0.30;;
75280;SDS011;63874;47.230;39.620;2023-04-24T06:05:20;0.85;;;0.20;;
75280;SDS011;63874;47.230;39.620;2023-04-24T06:07:47;1.35;;;0.40;;
75280;SDS011;63874;47.230;39.620;2023-04-24T06:10:14;1.60;;;0.60;;
75280;SDS011;63874;47.230;39.620;2023-04-24T06:12:42;1.45;;;0.25;;
75280;SDS011;63874;47.230;39.620;2023-04-24T06:15:15;1.20;;;0.40;;
75280;SDS011;63874;47.230;39.620;2023-04-24T06:17:55;1.70;;;0.73;;
75280;SDS011;63874;47.230;39.620;2023-04-24T06:20:21;1.02;;;0.55;;
75280;SDS011;63874;47.230;39.620;2023-04-24T06:22:47;1.48;;;0.40;;
75280;SDS011;63874;47.230;39.620;2023-04-24T06:25:13;1.33;;;0.38;;
75280;SDS011;63874;47.230;39.620;2023-04-24T06:27:39;1.00;;;0.30;;
75280;SDS011;63874;47.230;39.620;2023-04-24T06:30:07;2.05;;;0.30;;
75280;SDS011;63874;47.230;39.620;2023-04-24T06:32:33;1.52;;;0.40;;
75280;SDS011;63874;47.230;39.620;2023-04-24T06:34:59;1.27;;;0.30;;
75280;SDS011;63874;47.230;39.620;2023-04-24T06:37:25;0.90;;;0.20;;
75280;SDS011;63874;47.230;39.620;2023-04-24T06:39:51;0.73;;;0.28;;
75280;SDS011;63874;47.230;39.620;2023-04-24T06:42:17;0.70;;;0.30;;
75280;SDS011;63874;47.230;39.620;2023-04-24T06:44:43;1.35;;;0.38;;
75280;SDS011;63874;47.230;39.620;2023-04-24T06:47:10;2.47;;;0.38;;
75280;SDS011;63874;47.230;39.620;2023-04-24T06:49:37;1.23;;;0.20;;
75280;SDS011;63874;47.230;39.620;2023-04-24T06:52:03;1.42;;;0.32;;
75280;SDS011;63874;47.230;39.620;2023-04-24T06:54:30;6.55;;;5.13;;
75280;SDS011;63874;47.230;39.620;2023-04-24T06:56:59;4.10;;;2.33;;
75280;SDS011;63874;47.230;39.620;2023-04-24T06:59:28;1.70;;;0.40;;
75280;SDS011;63874;47.230;39.620;2023-04-24T07:01:55;1.23;;;0.50;;
75280;SDS011;63874;47.230;39.620;2023-04-24T07:04:21;0.60;;;0.20;;
75280;SDS011;63874;47.230;39.620;2023-04-24T07:06:48;1.50;;;0.47;;
75280;SDS011;63874;47.230;39.620;2023-04-24T07:09:19;2.28;;;0.30;;
75280;SDS011;63874;47.230;39.620;2023-04-24T07:11:45;0.90;;;0.30;;
75280;SDS011;63874;47.230;39.620;2023-04-24T07:14:11;1.10;;;0.30;;
75280;SDS011;63874;47.230;39.620;2023-04-24T07:16:37;0.85;;;0.22;;
75280;SDS011;63874;47.230;39.620;2023-04-24T07:19:03;0.95;;;0.30;;
75280;SDS011;63874;47.230;39.620;2023-04-24T07:21:29;0.93;;;0.73;;
75280;SDS011;63874;47.230;39.620;2023-04-24T07:23:59;1.10;;;0.35;;
75280;SDS011;63874;47.230;39.620;2023-04-24T07:26:26;1.83;;;0.50;;
75280;SDS011;63874;47.230;39.620;2023-04-24T07:28:52;1.13;;;0.20;;
75280;SDS011;63874;47.230;39.620;2023-04-24T07:31:18;1.38;;;0.28;;
75280;SDS011;63874;47.230;39.620;2023-04-24T07:33:44;0.68;;;0.20;;
75280;SDS011;63874;47.230;39.620;2023-04-24T07:36:11;1.75;;;0.28;;
75280;SDS011;63874;47.230;39.620;2023-04-24T07:38:50;0.80;;;0.20;;
75280;SDS011;63874;47.230;39.620;2023-04-24T07:41:16;1.02;;;0.25;;
75280;SDS011;63874;47.230;39.620;2023-04-24T07:43:41;1.67;;;0.20;;
75280;SDS011;63874;47.230;39.620;2023-04-24T07:46:08;0.63;;;0.30;;
75280;SDS011;63874;47.230;39.620;2023-04-24T07:48:34;1.00;;;0.30;;
75280;SDS011;63874;47.230;39.620;2023-04-24T07:51:00;2.42;;;0.30;;
75280;SDS011;63874;47.230;39.620;2023-04-24T07:53:26;1.15;;;0.35;;
75280;SDS011;63874;47.230;39.620;2023-04-24T07:55:52;1.30;;;0.20;;
75280;SDS011;63874;47.230;39.620;2023-04-24T07:58:20;0.70;;;0.25;;
75280;SDS011;63874;47.230;39.620;2023-04-24T08:00:46;0.77;;;0.20;;
75280;SDS011;63874;47.230;39.620;2023-04-24T08:03:12;0.40;;;0.10;;
75280;SDS011;63874;47.230;39.620;2023-04-24T08:05:38;2.38;;;0.43;;
75280;SDS011;63874;47.230;39.620;2023-04-24T08:08:04;0.75;;;0.25;;
75280;SDS011;63874;47.230;39.620;2023-04-24T08:10:30;1.55;;;0.30;;
75280;SDS011;63874;47.230;39.620;2023-04-24T08:12:56;0.63;;;0.20;;
75280;SDS011;63874;47.230;39.620;2023-04-24T08:15:21;0.60;;;0.40;;
75280;SDS011;63874;47.230;39.620;2023-04-24T08:17:47;0.93;;;0.25;;
75280;SDS011;63874;47.230;39.620;2023-04-24T08:20:13;0.43;;;0.15;;
75280;SDS011;63874;47.230;39.620;2023-04-24T08:22:39;0.63;;;0.30;;
75280;SDS011;63874;47.230;39.620;2023-04-24T08:25:06;0.73;;;0.20;;
75280;SDS011;63874;47.230;39.620;2023-04-24T08:27:32;3.25;;;0.75;;
75280;SDS011;63874;47.230;39.620;2023-04-24T08:29:58;1.38;;;0.20;;
75280;SDS011;63874;47.230;39.620;2023-04-24T08:32:25;0.98;;;0.20;;
75280;SDS011;63874;47.230;39.620;2023-04-24T08:34:58;0.98;;;0.32;;
75280;SDS011;63874;47.230;39.620;2023-04-24T08:37:25;0.63;;;0.30;;
75280;SDS011;63874;47.230;39.620;2023-04-24T08:39:52;1.48;;;0.20;;
75280;SDS011;63874;47.230;39.620;2023-04-24T08:42:21;1.25;;;0.40;;
75280;SDS011;63874;47.230;39.620;2023-04-24T08:44:48;1.15;;;0.47;;
75280;SDS011;63874;47.230;39.620;2023-04-24T08:47:15;0.95;;;0.30;;
75280;SDS011;63874;47.230;39.620;2023-04-24T08:49:41;1.08;;;0.22;;
75280;SDS011;63874;47.230;39.620;2023-04-24T08:52:08;1.23;;;0.35;;
75280;SDS011;63874;47.230;39.620;2023-04-24T08:54:37;1.17;;;0.30;;
75280;SDS011;63874;47.230;39.620;2023-04-24T08:57:04;0.93;;;0.20;;
75280;SDS011;63874;47.230;39.620;2023-04-24T08:59:33;1.10;;;0.22;;
75280;SDS011;63874;47.230;39.620;2023-04-24T09:02:00;1.00;;;0.20;;
75280;SDS011;63874;47.230;39.620;2023-04-24T09:04:29;1.45;;;0.45;;
75280;SDS011;63874;47.230;39.620;2023-04-24T09:06:56;1.38;;;0.30;;
75280;SDS011;63874;47.230;39.620;2023-04-24T09:09:24;1.55;;;0.20;;
75280;SDS011;63874;47.230;39.620;2023-04-24T09:11:51;1.63;;;0.30;;
75280;SDS011;63874;47.230;39.620;2023-04-24T09:14:19;0.75;;;0.20;;
75280;SDS011;63874;47.230;39.620;2023-04-24T09:16:46;0.93;;;0.40;;
75280;SDS011;63874;47.230;39.620;2023-04-24T09:19:12;1.08;;;0.20;;
75280;SDS011;63874;47.230;39.620;2023-04-24T09:21:38;1.55;;;0.52;;
75280;SDS011;63874;47.230;39.620;2023-04-24T09:24:06;1.10;;;0.32;;
75280;SDS011;63874;47.230;39.620;2023-04-24T09:26:39;0.90;;;0.20;;
75280;SDS011;63874;47.230;39.620;2023-04-24T09:29:05;2.38;;;0.17;;
75280;SDS011;63874;47.230;39.620;2023-04-24T09:31:31;0.47;;;0.20;;
75280;SDS011;63874;47.230;39.620;2023-04-24T09:36:28;1.52;;;0.20;;
75280;SDS011;63874;47.230;39.620;2023-04-24T09:39:14;0.70;;;0.30;;
75280;SDS011;63874;47.230;39.620;2023-04-24T09:41:45;0.75;;;0.22;;
75280;SDS011;63874;47.230;39.620;2023-04-24T09:44:19;0.60;;;0.20;;
75280;SDS011;63874;47.230;39.620;2023-04-24T09:46:49;1.45;;;0.20;;
75280;SDS011;63874;47.230;39.620;2023-04-24T09:49:26;0.40;;;0.20;;
75280;SDS011;63874;47.230;39.620;2023-04-24T09:52:02;1.17;;;0.35;;
75280;SDS011;63874;47.230;39.620;2023-04-24T09:54:31;0.50;;;0.30;;
75280;SDS011;63874;47.230;39.620;2023-04-24T09:56:58;1.20;;;0.63;;
75280;SDS011;63874;47.230;39.620;2023-04-24T09:59:28;1.33;;;0.50;;
75280;SDS011;63874;47.230;39.620;2023-04-24T10:01:54;0.60;;;0.30;;
75280;SDS011;63874;47.230;39.620;2023-04-24T10:04:24;0.98;;;0.20;;
75280;SDS011;63874;47.230;39.620;2023-04-24T10:06:52;1.13;;;0.20;;
75280;SDS011;63874;47.230;39.620;2023-04-24T10:09:19;0.80;;;0.20;;
75280;SDS011;63874;47.230;39.620;2023-04-24T10:11:48;2.78;;;0.30;;
75280;SDS011;63874;47.230;39.620;2023-04-24T10:14:16;1.95;;;0.20;;
75280;SDS011;63874;47.230;39.620;2023-04-24T10:16:46;0.47;;;0.13;;
75280;SDS011;63874;47.230;39.620;2023-04-24T10:19:13;0.55;;;0.20;;
75280;SDS011;63874;47.230;39.620;2023-04-24T10:21:40;2.63;;;0.20;;
75280;SDS011;63874;47.230;39.620;2023-04-24T10:24:08;3.17;;;0.30;;
75280;SDS011;63874;47.230;39.620;2023-04-24T10:26:35;0.93;;;0.30;;
75280;SDS011;63874;47.230;39.620;2023-04-24T10:29:02;0.98;;;0.38;;
75280;SDS011;63874;47.230;39.620;2023-04-24T10:31:35;0.70;;;0.22;;
75280;SDS011;63874;47.230;39.620;2023-04-24T10:34:04;0.75;;;0.30;;
75280;SDS011;63874;47.230;39.620;2023-04-24T10:36:31;0.95;;;0.43;;
75280;SDS011;63874;47.230;39.620;2023-04-24T10:38:59;2.05;;;0.30;;
75280;SDS011;63874;47.230;39.620;2023-04-24T10:41:28;0.50;;;0.20;;
75280;SDS011;63874;47.230;39.620;2023-04-24T10:44:11;1.77;;;0.30;;
75280;SDS011;63874;47.230;39.620;2023-04-24T10:46:39;0.73;;;0.10;;
75280;SDS011;63874;47.230;39.620;2023-04-24T10:49:08;0.77;;;0.20;;
75280;SDS011;63874;47.230;39.620;2023-04-24T10:54:35;0.88;;;0.30;;
75280;SDS011;63874;47.230;39.620;2023-04-24T11:02:40;0.65;;;0.32;;
75280;SDS011;63874;47.230;39.620;2023-04-24T11:05:14;0.50;;;0.20;;
75280;SDS011;63874;47.230;39.620;2023-04-24T11:10:46;0.40;;;0.10;;
75280;SDS011;63874;47.230;39.620;2023-04-24T11:13:21;1.27;;;0.93;;
75280;SDS011;63874;47.230;39.620;2023-04-24T11:18:41;0.60;;;0.22;;
75280;SDS011;63874;47.230;39.620;2023-04-24T11:21:16;0.65;;;0.20;;
75280;SDS011;63874;47.230;39.620;2023-04-24T11:23:43;0.70;;;0.20;;
75280;SDS011;63874;47.230;39.620;2023-04-24T11:26:11;0.88;;;0.35;;
75280;SDS011;63874;47.230;39.620;2023-04-24T11:28:48;1.88;;;0.30;;
75280;SDS011;63874;47.230;39.620;2023-04-24T11:31:37;1.05;;;0.20;;
75280;SDS011;63874;47.230;39.620;2023-04-24T11:34:10;0.70;;;0.30;;
75280;SDS011;63874;47.230;39.620;2023-04-24T11:36:39;0.50;;;0.20;;
75280;SDS011;63874;47.230;39.620;2023-04-24T11:39:08;0.68;;;0.20;;
75280;SDS011;63874;47.230;39.620;2023-04-24T11:41:35;1.50;;;0.22;;
75280;SDS011;63874;47.230;39.620;2023-04-24T11:44:01;1.45;;;0.50;;
75280;SDS011;63874;47.230;39.620;2023-04-24T11:46:29;0.90;;;0.22;;
75280;SDS011;63874;47.230;39.620;2023-04-24T11:48:57;0.60;;;0.20;;
75280;SDS011;63874;47.230;39.620;2023-04-24T11:51:24;1.60;;;0.20;;
75280;SDS011;63874;47.230;39.620;2023-04-24T11:53:52;0.80;;;0.22;;
75280;SDS011;63874;47.230;39.620;2023-04-24T11:56:19;0.90;;;0.45;;
75280;SDS011;63874;47.230;39.620;2023-04-24T11:58:47;0.50;;;0.20;;
75280;SDS011;63874;47.230;39.620;2023-04-24T12:01:13;0.95;;;0.30;;
75280;SDS011;63874;47.230;39.620;2023-04-24T12:03:39;3.00;;;0.32;;
75280;SDS011;63874;47.230;39.620;2023-04-24T12:06:10;0.85;;;0.30;;
75280;SDS011;63874;47.230;39.620;2023-04-24T12:08:36;0.85;;;0.30;;
75280;SDS011;63874;47.230;39.620;2023-04-24T12:11:03;2.63;;;0.52;;
75280;SDS011;63874;47.230;39.620;2023-04-24T12:13:34;1.30;;;0.20;;
75280;SDS011;63874;47.230;39.620;2023-04-24T12:16:04;1.63;;;0.30;;
75280;SDS011;63874;47.230;39.620;2023-04-24T12:18:30;1.52;;;0.32;;
75280;SDS011;63874;47.230;39.620;2023-04-24T12:21:14;0.95;;;0.35;;
75280;SDS011;63874;47.230;39.620;2023-04-24T12:23:42;1.42;;;0.20;;
75280;SDS011;63874;47.230;39.620;2023-04-24T12:26:09;1.13;;;0.52;;
75280;SDS011;63874;47.230;39.620;2023-04-24T12:28:36;0.80;;;0.30;;
75280;SDS011;63874;47.230;39.620;2023-04-24T12:31:02;1.17;;;0.22;;
75280;SDS011;63874;47.230;39.620;2023-04-24T12:33:31;1.08;;;0.35;;
75280;SDS011;63874;47.230;39.620;2023-04-24T12:35:59;1.15;;;0.20;;
75280;SDS011;63874;47.230;39.620;2023-04-24T12:38:26;1.25;;;0.30;;
75280;SDS011;63874;47.230;39.620;2023-04-24T12:41:04;1.05;;;0.40;;
75280;SDS011;63874;47.230;39.620;2023-04-24T12:43:30;0.80;;;0.30;;
75280;SDS011;63874;47.230;39.620;2023-04-24T12:45:57;1.00;;;0.40;;
75280;SDS011;63874;47.230;39.620;2023-04-24T12:48:24;1.42;;;0.45;;
75280;SDS011;63874;47.230;39.620;2023-04-24T12:50:51;1.05;;;0.45;;
75280;SDS011;63874;47.230;39.620;2023-04-24T12:53:17;1.02;;;0.20;;
75280;SDS011;63874;47.230;39.620;2023-04-24T12:55:43;1.27;;;0.45;;
75280;SDS011;63874;47.230;39.620;2023-04-24T12:58:10;1.60;;;0.73;;
75280;SDS011;63874;47.230;39.620;2023-04-24T13:00:36;1.02;;;0.40;;
75280;SDS011;63874;47.230;39.620;2023-04-24T13:03:02;0.90;;;0.45;;
75280;SDS011;63874;47.230;39.620;2023-04-24T13:05:28;1.20;;;0.40;;
75280;SDS011;63874;47.230;39.620;2023-04-24T13:07:54;1.25;;;0.50;;
75280;SDS011;63874;47.230;39.620;2023-04-24T13:10:20;1.10;;;0.50;;
75280;SDS011;63874;47.230;39.620;2023-04-24T13:12:45;1.08;;;0.30;;
75280;SDS011;63874;47.230;39.620;2023-04-24T13:15:11;1.27;;;0.30;;
75280;SDS011;63874;47.230;39.620;2023-04-24T13:17:38;0.75;;;0.22;;
75280;SDS011;63874;47.230;39.620;2023-04-24T13:20:04;0.68;;;0.20;;
75280;SDS011;63874;47.230;39.620;2023-04-24T13:22:30;1.10;;;0.30;;
75280;SDS011;63874;47.230;39.620;2023-04-24T13:24:56;0.73;;;0.40;;
75280;SDS011;63874;47.230;39.620;2023-04-24T13:27:22;0.60;;;0.30;;
75280;SDS011;63874;47.230;39.620;2023-04-24T13:29:48;0.98;;;0.30;;
75280;SDS011;63874;47.230;39.620;2023-04-24T13:32:14;0.77;;;0.10;;
75280;SDS011;63874;47.230;39.620;2023-04-24T13:34:40;0.80;;;0.43;;
75280;SDS011;63874;47.230;39.620;2023-04-24T13:37:05;0.70;;;0.20;;
75280;SDS011;63874;47.230;39.620;2023-04-24T13:39:33;1.02;;;0.30;;
75280;SDS011;63874;47.230;39.620;2023-04-24T13:41:59;0.80;;;0.50;;
75280;SDS011;63874;47.230;39.620;2023-04-24T13:44:25;1.45;;;0.32;;
75280;SDS011;63874;47.230;39.620;2023-04-24T13:46:52;2.15;;;0.40;;
75280;SDS011;63874;47.230;39.620;2023-04-24T13:49:20;3.95;;;0.95;;
75280;SDS011;63874;47.230;39.620;2023-04-24T13:51:46;0.93;;;0.30;;
75280;SDS011;63874;47.230;39.620;2023-04-24T13:54:12;1.75;;;0.30;;
75280;SDS011;63874;47.230;39.620;2023-04-24T13:56:39;0.88;;;0.25;;
75280;SDS011;63874;47.230;39.620;2023-04-24T13:59:05;0.77;;;0.30;;
75280;SDS011;63874;47.230;39.620;2023-04-24T14:01:31;0.52;;;0.30;;
75280;SDS011;63874;47.230;39.620;2023-04-24T14:03:57;1.25;;;0.30;;
75280;SDS011;63874;47.230;39.620;2023-04-24T14:06:23;0.68;;;0.30;;
75280;SDS011;63874;47.230;39.620;2023-04-24T14:08:49;0.70;;;0.25;;
75280;SDS011;63874;47.230;39.620;2023-04-24T14:11:15;1.52;;;0.47;;
75280;SDS011;63874;47.230;39.620;2023-04-24T14:13:42;1.15;;;0.20;;
75280;SDS011;63874;47.230;39.620;2023-04-24T14:16:08;1.10;;;0.20;;
75280;SDS011;63874;47.230;39.620;2023-04-24T14:18:35;0.75;;;0.20;;
75280;SDS011;63874;47.230;39.620;2023-04-24T14:21:01;1.58;;;0.30;;
75280;SDS011;63874;47.230;39.620;2023-04-24T14:23:28;0.70;;;0.28;;
75280;SDS011;63874;47.230;39.620;2023-04-24T14:25:54;1.63;;;0.20;;
75280;SDS011;63874;47.230;39.620;2023-04-24T14:28:20;0.80;;;0.40;;
75280;SDS011;63874;47.230;39.620;2023-04-24T14:30:46;0.85;;;0.10;;
75280;SDS011;63874;47.230;39.620;2023-04-24T14:33:13;0.40;;;0.10;;
75280;SDS011;63874;47.230;39.620;2023-04-24T14:35:40;0.75;;;0.20;;
75280;SDS011;63874;47.230;39.620;2023-04-24T14:38:07;0.93;;;0.20;;
75280;SDS011;63874;47.230;39.620;2023-04-24T14:40:33;0.93;;;0.30;;
75280;SDS011;63874;47.230;39.620;2023-04-24T14:42:58;0.52;;;0.32;;
75280;SDS011;63874;47.230;39.620;2023-04-24T14:45:27;0.90;;;0.30;;
75280;SDS011;63874;47.230;39.620;2023-04-24T14:47:53;1.15;;;0.30;;
75280;SDS011;63874;47.230;39.620;2023-04-24T14:50:20;1.08;;;0.30;;
75280;SDS011;63874;47.230;39.620;2023-04-24T14:52:46;0.93;;;0.40;;
75280;SDS011;63874;47.230;39.620;2023-04-24T14:55:12;0.98;;;0.28;;